EST,Max TemperatureF,Mean TemperatureF,Min TemperatureF,Max Dew PointF,MeanDew PointF,Min DewpointF,Max Humidity, Mean Humidity, Min Humidity, Max Sea Level PressureIn, Mean Sea Level PressureIn, Min Sea Level PressureIn, Max VisibilityMiles, Mean VisibilityMiles, Min VisibilityMiles, Max Wind SpeedMPH, Mean Wind SpeedMPH, Max Gust SpeedMPH,PrecipitationIn, CloudCover, Events, WindDirDegrees
2013-2-1,19,14,7,16,5,0,86,68,59,30.39,30.20,29.90,10,8,1,17,12,26,0.00,7,Snow,264
2013-2-2,27,17,7,25,16,2,93,81,68,30.35,30.08,29.96,10,4,1,15,7,20,0.02,8,Snow,207
2013-2-3,26,22,18,21,16,10,93,78,63,30.11,29.95,29.88,10,5,0,16,5,,0.02,8,Snow,263
2013-2-4,30,20,9,27,20,5,93,83,58,30.12,29.94,29.83,10,5,0,9,4,,0.16,7,Fog-Snow,175
2013-2-5,33,29,28,28,25,21,93,83,69,29.99,29.89,29.84,10,5,1,9,1,,0.00,8,Snow,266
2013-2-6,35,26,16,27,21,12,88,71,50,30.32,30.21,30.01,10,8,5,13,5,,0.00,5,,299
2013-2-7,46,31,16,32,24,12,85,68,47,30.29,30.11,29.86,10,9,4,8,2,,0.00,2,,81
2013-2-8,43,36,28,37,29,19,93,78,68,30.30,29.96,29.76,10,8,2,21,11,32,0.15,8,Rain,283
2013-2-9,35,28,21,20,17,14,88,66,50,30.45,30.38,30.32,10,10,9,13,5,,0.00,3,,353
2013-2-10,46,34,23,39,26,17,78,63,42,30.31,30.10,29.86,10,10,6,13,3,22,0.02,4,Rain,152
2013-2-11,55,47,37,44,35,25,89,67,47,29.99,29.84,29.76,10,10,10,30,14,46,0.00,6,Rain,235
2013-2-12,45,38,28,27,25,24,89,66,49,30.12,30.03,29.94,10,10,10,18,10,30,0.00,4,,254
2013-2-13,33,27,21,30,25,19,93,85,75,29.92,29.81,29.72,10,4,0,9,3,,0.08,5,Fog-Snow,324
2013-2-14,42,30,19,36,27,18,93,85,70,29.97,29.90,29.82,10,6,0,15,4,21,0.00,5,Fog-Rain,205
2013-2-15,37,32,26,31,28,21,93,82,70,30.12,30.04,29.97,10,6,0,13,5,18,0.08,7,Fog-Snow,295
2013-2-16,28,22,16,23,17,6,88,74,51,30.12,30.02,29.96,10,7,0,20,6,24,0.01,6,Fog-Snow,277
2013-2-17,24,20,14,13,9,4,84,68,50,30.28,30.18,30.07,10,10,9,14,9,21,0.00,4,,297
2013-2-18,50,31,12,31,20,9,84,59,44,30.29,30.09,29.80,10,10,8,14,5,22,0.00,1,,163
2013-2-19,44,34,23,38,25,12,93,76,63,30.06,29.84,29.66,10,7,1,29,16,40,0.19,8,Rain-Snow,251
2013-2-20,23,20,18,16,12,9,80,68,60,30.30,30.18,30.04,10,8,2,22,13,26,0.00,8,Snow,272
2013-2-21,30,26,21,18,15,11,80,68,61,30.38,30.30,30.24,10,10,8,9,7,,0.00,6,,19
2013-2-22,42,34,26,38,28,16,96,83,66,30.21,30.00,29.94,10,7,2,15,7,22,0.06,8,Rain,119
2013-2-23,41,34,28,33,28,23,89,73,55,29.99,29.94,29.89,10,9,6,13,3,17,0.00,4,,253
2013-2-24,34,30,26,24,22,20,86,71,56,30.18,30.07,29.93,10,10,8,12,4,,0.00,7,,272
2013-2-25,45,33,21,25,23,19,89,64,44,30.23,30.14,30.01,10,9,4,10,3,,0.00,1,,78
2013-2-26,44,38,33,41,33,22,93,83,59,29.99,29.65,29.48,10,7,1,16,8,26,0.72,7,Rain,86
2013-2-27,44,38,33,41,34,30,93,85,76,29.70,29.63,29.49,10,9,4,17,12,29,0.24,8,Rain-Snow,225
2013-2-28,37,35,33,34,31,28,93,86,79,29.91,29.75,29.63,10,7,2,15,10,22,0.06,8,Rain-Snow,276